createdAt,value
2023-05-22T00:00:41.627Z,14.00
2023-05-22T00:01:43.584Z,14.00
2023-05-22T00:02:45.892Z,14.00
2023-05-22T00:03:48.662Z,13.90
2023-05-22T00:04:51.375Z,13.90
2023-05-22T00:05:53.280Z,13.90
2023-05-22T00:06:55.233Z,13.90
2023-05-22T00:07:57.287Z,13.90
2023-05-22T00:08:59.175Z,13.90
2023-05-22T00:10:01.022Z,13.90
2023-05-22T00:11:03.585Z,13.90
2023-05-22T00:12:05.748Z,13.80
2023-05-22T00:13:08.659Z,13.90
2023-05-22T00:14:10.680Z,13.80
2023-05-22T00:15:12.660Z,13.80
2023-05-22T00:16:14.481Z,13.70
2023-05-22T00:17:16.633Z,13.70
2023-05-22T00:18:19.404Z,13.70
2023-05-22T00:19:23.293Z,13.70
2023-05-22T00:20:26.282Z,13.70
2023-05-22T00:21:28.404Z,13.70
2023-05-22T00:22:31.643Z,13.70
2023-05-22T00:23:35.421Z,13.70
2023-05-22T00:24:37.207Z,13.70
2023-05-22T00:25:39.615Z,13.70
2023-05-22T00:26:41.530Z,13.60
2023-05-22T00:27:43.404Z,13.70
2023-05-22T00:28:45.239Z,13.70
2023-05-22T00:29:46.997Z,13.70
2023-05-22T00:30:48.878Z,13.70
2023-05-22T00:31:50.767Z,13.60
2023-05-22T00:32:52.758Z,13.70
2023-05-22T00:33:54.675Z,13.60
2023-05-22T00:34:56.610Z,13.60
2023-05-22T00:35:58.548Z,13.60
2023-05-22T00:37:00.625Z,13.60
2023-05-22T00:38:04.875Z,13.60
2023-05-22T00:39:07.171Z,13.60
2023-05-22T00:40:10.065Z,13.60
2023-05-22T00:41:11.923Z,13.60
2023-05-22T00:42:14.064Z,13.60
2023-05-22T00:43:17.418Z,13.60
2023-05-22T00:44:19.372Z,13.60
2023-05-22T00:45:23.605Z,13.60
2023-05-22T00:46:25.565Z,13.60
2023-05-22T00:47:27.437Z,13.60
2023-05-22T00:48:29.609Z,13.50
2023-05-22T00:49:31.623Z,13.50
2023-05-22T00:50:33.573Z,13.50
2023-05-22T00:51:35.745Z,13.50
2023-05-22T00:52:42.610Z,13.50
2023-05-22T00:53:46.048Z,13.50
2023-05-22T00:54:50.356Z,13.50
2023-05-22T00:55:54.057Z,13.40
2023-05-22T00:56:56.658Z,13.50
2023-05-22T00:57:58.579Z,13.40
2023-05-22T00:59:01.852Z,13.40
2023-05-22T01:00:06.335Z,13.50
2023-05-22T01:01:11.453Z,13.40
2023-05-22T01:02:16.587Z,13.40
2023-05-22T01:03:19.628Z,13.40
2023-05-22T01:04:21.692Z,13.40
2023-05-22T01:05:25.635Z,13.40
2023-05-22T01:06:28.031Z,13.40
2023-05-22T01:07:30.827Z,13.30
2023-05-22T01:08:32.891Z,13.30
2023-05-22T01:09:34.731Z,13.30
2023-05-22T01:10:39.065Z,13.30
2023-05-22T01:12:06.089Z,13.30
2023-05-22T01:13:26.448Z,13.30
2023-05-22T01:14:49.414Z,13.30
2023-05-22T01:16:21.990Z,13.20
2023-05-22T01:17:38.136Z,13.30
2023-05-22T01:18:55.735Z,13.20
2023-05-22T01:20:07.328Z,13.20
2023-05-22T01:21:34.242Z,13.20
2023-05-22T01:22:58.736Z,13.20
2023-05-22T01:24:11.787Z,13.10
2023-05-22T01:25:35.379Z,13.10
2023-05-22T01:27:28.595Z,13.10
2023-05-22T01:28:48.898Z,13.10
2023-05-22T01:30:06.224Z,13.10
2023-05-22T01:31:16.145Z,13.00
2023-05-22T01:32:21.916Z,13.00
2023-05-22T01:33:27.477Z,13.00
2023-05-22T01:34:33.133Z,13.00
2023-05-22T01:35:38.436Z,13.00
2023-05-22T01:36:41.880Z,13.00
2023-05-22T01:37:45.086Z,12.90
2023-05-22T01:38:47.448Z,12.90
2023-05-22T01:39:52.137Z,12.90
2023-05-22T01:40:54.875Z,12.90
2023-05-22T01:41:57.367Z,12.90
2023-05-22T01:42:59.203Z,12.80
2023-05-22T01:44:02.495Z,12.80
2023-05-22T01:45:05.584Z,12.80
2023-05-22T01:46:07.511Z,12.80
2023-05-22T01:47:10.582Z,12.80
2023-05-22T01:48:12.513Z,12.80
2023-05-22T01:49:14.707Z,12.80
2023-05-22T01:50:16.646Z,12.80
2023-05-22T01:51:20.585Z,12.80
2023-05-22T01:52:35.478Z,12.80
2023-05-22T01:54:07.881Z,12.80
2023-05-22T01:55:20.388Z,12.80
2023-05-22T01:56:34.861Z,12.80
2023-05-22T01:57:47.403Z,12.80
2023-05-22T01:58:58.461Z,12.80
2023-05-22T02:00:09.981Z,12.80
2023-05-22T02:01:14.137Z,12.80
2023-05-22T02:02:19.204Z,12.70
2023-05-22T02:03:27.369Z,12.70
2023-05-22T02:04:31.638Z,12.70
2023-05-22T02:05:36.804Z,12.70
2023-05-22T02:06:40.008Z,12.70
2023-05-22T02:07:43.634Z,12.70
2023-05-22T02:08:45.576Z,12.60
2023-05-22T02:09:48.933Z,12.60
2023-05-22T02:10:52.363Z,12.60
2023-05-22T02:11:54.121Z,12.60
2023-05-22T02:12:56.437Z,12.60
2023-05-22T02:13:58.729Z,12.60
2023-05-22T02:15:01.442Z,12.60
2023-05-22T02:16:04.192Z,12.70
2023-05-22T02:17:06.141Z,12.70
2023-05-22T02:18:14.513Z,12.70
2023-05-22T02:19:16.605Z,12.70
2023-05-22T02:20:18.733Z,12.70
2023-05-22T02:21:22.697Z,12.70
2023-05-22T02:22:24.596Z,12.70
2023-05-22T02:23:29.700Z,12.60
2023-05-22T02:24:32.621Z,12.60
2023-05-22T02:25:34.569Z,12.70
2023-05-22T02:26:37.620Z,12.70
2023-05-22T02:27:39.810Z,12.70
2023-05-22T02:28:42.971Z,12.70
2023-05-22T02:29:44.829Z,12.70
2023-05-22T02:30:46.668Z,12.70
2023-05-22T02:31:48.714Z,12.70
2023-05-22T02:32:50.739Z,12.80
2023-05-22T02:33:52.571Z,12.70
2023-05-22T02:34:54.929Z,12.80
2023-05-22T02:35:56.816Z,12.70
2023-05-22T02:37:05.317Z,12.70
2023-05-22T02:38:07.181Z,12.70
2023-05-22T02:39:09.059Z,12.80
2023-05-22T02:40:11.768Z,12.80
2023-05-22T02:41:13.765Z,12.80
2023-05-22T02:42:16.280Z,12.80
2023-05-22T02:43:18.098Z,12.80
2023-05-22T02:44:19.939Z,12.80
2023-05-22T02:45:22.639Z,12.80
2023-05-22T02:46:24.582Z,12.80
2023-05-22T02:47:26.574Z,12.80
2023-05-22T02:48:29.430Z,12.80
2023-05-22T02:49:31.481Z,12.90
2023-05-22T02:50:33.321Z,12.90
2023-05-22T02:51:35.224Z,12.90
2023-05-22T02:52:37.276Z,12.90
2023-05-22T02:53:40.670Z,12.90
2023-05-22T02:54:42.531Z,12.90
2023-05-22T02:55:44.352Z,13.00
2023-05-22T02:56:46.236Z,13.00
2023-05-22T02:57:48.190Z,13.00
2023-05-22T02:58:50.006Z,13.00
2023-05-22T02:59:52.763Z,13.10
2023-05-22T03:00:54.697Z,13.10
2023-05-22T03:01:56.681Z,13.10
2023-05-22T03:02:58.678Z,13.10
2023-05-22T03:04:00.574Z,13.10
2023-05-22T03:05:02.493Z,13.10
2023-05-22T03:06:04.631Z,13.10
2023-05-22T03:07:07.338Z,13.10
2023-05-22T03:08:09.170Z,13.10
2023-05-22T03:09:14.266Z,13.10
2023-05-22T03:10:16.242Z,13.10
2023-05-22T03:11:18.094Z,13.10
2023-05-22T03:12:19.915Z,13.10
2023-05-22T03:13:21.828Z,13.10
2023-05-22T03:14:23.653Z,13.10
2023-05-22T03:15:25.699Z,13.10
2023-05-22T03:16:28.060Z,13.20
2023-05-22T03:17:29.972Z,13.20
2023-05-22T03:18:32.164Z,13.20
2023-05-22T03:19:34.010Z,13.20
2023-05-22T03:20:36.031Z,13.20
2023-05-22T03:21:38.579Z,13.20
2023-05-22T03:22:40.693Z,13.20
2023-05-22T03:23:44.680Z,13.20
2023-05-22T03:24:46.458Z,13.10
2023-05-22T03:25:48.568Z,13.20
2023-05-22T03:26:50.464Z,13.10
2023-05-22T03:27:52.436Z,13.20
2023-05-22T03:28:55.191Z,13.10
2023-05-22T03:29:57.055Z,13.10
2023-05-22T03:30:58.957Z,13.10
2023-05-22T03:32:03.431Z,13.10
2023-05-22T03:33:05.448Z,13.10
2023-05-22T03:34:07.810Z,13.10
2023-05-22T03:35:10.013Z,13.10
2023-05-22T03:36:11.893Z,13.10
2023-05-22T03:37:13.680Z,13.20
2023-05-22T03:38:15.564Z,13.10
2023-05-22T03:39:17.490Z,13.10
2023-05-22T03:40:19.458Z,13.10
2023-05-22T03:41:22.326Z,13.10
2023-05-22T03:42:24.254Z,13.10
2023-05-22T03:43:26.169Z,13.10
2023-05-22T03:44:28.101Z,13.10
2023-05-22T03:45:29.946Z,13.10
2023-05-22T03:46:31.788Z,13.10
2023-05-22T03:47:33.749Z,13.00
2023-05-22T03:48:35.716Z,13.00
2023-05-22T03:49:37.532Z,13.00
2023-05-22T03:50:39.540Z,13.00
2023-05-22T03:51:41.541Z,13.00
2023-05-22T03:52:43.579Z,13.00
2023-05-22T03:53:45.522Z,13.00
2023-05-22T03:54:47.448Z,13.00
2023-05-22T03:55:49.318Z,13.00
2023-05-22T03:56:51.220Z,13.00
2023-05-22T03:57:53.001Z,13.00
2023-05-22T03:58:54.968Z,13.10
2023-05-22T03:59:57.294Z,13.10
2023-05-22T04:01:01.367Z,13.10
2023-05-22T04:02:03.392Z,13.10
2023-05-22T04:03:05.383Z,13.10
2023-05-22T04:04:07.252Z,13.20
2023-05-22T04:05:10.210Z,13.20
2023-05-22T04:06:13.898Z,13.20
2023-05-22T04:07:18.557Z,13.20
2023-05-22T04:08:20.880Z,13.20
2023-05-22T04:09:22.869Z,13.30
2023-05-22T04:10:24.749Z,13.30
2023-05-22T04:11:26.969Z,13.30
2023-05-22T04:12:28.809Z,13.30
2023-05-22T04:13:31.415Z,13.30
2023-05-22T04:14:33.280Z,13.40
2023-05-22T04:15:35.506Z,13.40
2023-05-22T04:16:37.572Z,13.40
2023-05-22T04:17:41.576Z,13.40
2023-05-22T04:18:43.857Z,13.40
2023-05-22T04:19:46.554Z,13.40
2023-05-22T04:20:51.734Z,13.40
2023-05-22T04:21:54.821Z,13.40
2023-05-22T04:22:57.573Z,13.40
2023-05-22T04:23:59.780Z,13.40
2023-05-22T04:25:01.788Z,13.40
2023-05-22T04:26:03.696Z,13.40
2023-05-22T04:27:06.560Z,13.40
2023-05-22T04:28:09.516Z,13.40
2023-05-22T04:29:14.492Z,13.40
2023-05-22T04:30:17.226Z,13.40
2023-05-22T04:31:19.025Z,13.30
2023-05-22T04:32:23.818Z,13.40
2023-05-22T04:33:25.880Z,13.40
2023-05-22T04:34:33.605Z,13.40
2023-05-22T04:35:36.015Z,13.40
2023-05-22T04:36:39.028Z,13.40
2023-05-22T04:37:45.556Z,13.40
2023-05-22T04:38:47.757Z,13.40
2023-05-22T04:39:52.886Z,13.40
2023-05-22T04:40:55.033Z,13.40
2023-05-22T04:41:58.310Z,13.40
2023-05-22T04:43:01.581Z,13.40
2023-05-22T04:44:04.228Z,13.50
2023-05-22T04:45:06.758Z,13.50
2023-05-22T04:46:08.749Z,13.50
2023-05-22T04:47:12.177Z,13.50
2023-05-22T04:48:15.364Z,13.50
2023-05-22T04:49:17.591Z,13.50
2023-05-22T04:50:20.676Z,13.50
2023-05-22T04:51:23.244Z,13.50
2023-05-22T04:52:25.210Z,13.60
2023-05-22T04:53:27.586Z,13.60
2023-05-22T04:54:29.405Z,13.60
2023-05-22T04:55:34.674Z,13.60
2023-05-22T04:56:37.354Z,13.70
2023-05-22T04:57:40.773Z,13.70
2023-05-22T04:58:42.624Z,13.80
2023-05-22T04:59:45.606Z,13.80
2023-05-22T05:00:48.361Z,13.80
2023-05-22T05:01:50.495Z,13.90
2023-05-22T05:02:52.663Z,13.90
2023-05-22T05:03:54.597Z,13.90
2023-05-22T05:04:56.589Z,14.00
2023-05-22T05:06:00.454Z,14.00
2023-05-22T05:07:03.598Z,14.10
2023-05-22T05:08:05.623Z,14.10
2023-05-22T05:09:07.476Z,14.20
2023-05-22T05:10:10.803Z,14.30
2023-05-22T05:11:12.609Z,14.20
2023-05-22T05:12:15.863Z,14.30
2023-05-22T05:13:17.689Z,14.30
2023-05-22T05:14:19.873Z,14.40
2023-05-22T05:15:23.764Z,14.40
2023-05-22T05:16:26.727Z,14.40
2023-05-22T05:17:28.850Z,14.50
2023-05-22T05:18:30.883Z,14.50
2023-05-22T05:19:34.732Z,14.60
2023-05-22T05:20:38.288Z,14.60
2023-05-22T05:21:40.428Z,14.60
2023-05-22T05:22:44.053Z,14.60
2023-05-22T05:23:45.808Z,14.70
2023-05-22T05:24:47.834Z,14.70
2023-05-22T05:25:49.795Z,14.80
2023-05-22T05:26:51.817Z,14.90
2023-05-22T05:27:53.772Z,14.90
2023-05-22T05:28:56.746Z,14.90
2023-05-22T05:29:58.819Z,15.00
2023-05-22T05:31:00.651Z,15.00
2023-05-22T05:32:03.965Z,15.10
2023-05-22T05:33:06.180Z,15.20
2023-05-22T05:34:08.445Z,15.30
2023-05-22T05:35:10.230Z,15.30
2023-05-22T05:36:12.228Z,15.30
2023-05-22T05:37:14.261Z,15.40
2023-05-22T05:38:17.289Z,15.50
2023-05-22T05:39:19.220Z,15.50
2023-05-22T05:40:21.010Z,15.60
2023-05-22T05:41:23.081Z,15.60
2023-05-22T05:42:24.993Z,15.60
2023-05-22T05:43:26.867Z,15.70
2023-05-22T05:44:28.744Z,15.70
2023-05-22T05:45:30.471Z,15.80
2023-05-22T05:46:32.430Z,15.80
2023-05-22T05:47:35.108Z,15.90
2023-05-22T05:48:37.068Z,15.90
2023-05-22T05:49:38.994Z,16.00
2023-05-22T05:50:41.411Z,16.00
2023-05-22T05:51:43.489Z,16.00
2023-05-22T05:52:45.314Z,16.00
2023-05-22T05:53:47.089Z,16.10
2023-05-22T05:54:48.962Z,16.10
2023-05-22T05:55:51.381Z,16.10
2023-05-22T05:56:53.271Z,16.20
2023-05-22T05:57:55.299Z,16.20
2023-05-22T05:58:57.348Z,16.20
2023-05-22T05:59:59.226Z,16.30
2023-05-22T06:01:01.951Z,16.30
2023-05-22T06:02:03.788Z,16.40
2023-05-22T06:03:05.740Z,16.40
2023-05-22T06:04:09.076Z,16.50
2023-05-22T06:05:11.163Z,16.50
2023-05-22T06:06:14.156Z,16.50
2023-05-22T06:07:16.551Z,16.60
2023-05-22T06:08:19.956Z,16.60
2023-05-22T06:09:22.358Z,16.70
2023-05-22T06:10:24.601Z,16.70
2023-05-22T06:11:26.452Z,16.70
2023-05-22T06:12:28.227Z,16.70
2023-05-22T06:13:30.419Z,16.80
2023-05-22T06:14:32.606Z,16.80
2023-05-22T06:15:34.407Z,16.80
2023-05-22T06:16:36.397Z,16.80
2023-05-22T06:17:38.295Z,16.90
2023-05-22T06:18:40.819Z,16.90
2023-05-22T06:19:42.719Z,17.00
2023-05-22T06:20:44.539Z,17.00
2023-05-22T06:21:46.464Z,17.00
2023-05-22T06:22:48.356Z,17.10
2023-05-22T06:23:50.907Z,17.20
2023-05-22T06:24:55.982Z,17.20
2023-05-22T06:25:57.838Z,17.30
2023-05-22T06:27:00.188Z,17.30
2023-05-22T06:28:02.142Z,17.40
2023-05-22T06:29:04.040Z,17.40
2023-05-22T06:30:07.062Z,17.50
2023-05-22T06:31:09.799Z,17.50
2023-05-22T06:32:11.633Z,17.60
2023-05-22T06:33:14.513Z,17.60
2023-05-22T06:34:16.560Z,17.70
2023-05-22T06:35:19.259Z,17.70
2023-05-22T06:36:21.124Z,17.70
2023-05-22T06:37:22.907Z,17.80
2023-05-22T06:38:24.645Z,17.80
2023-05-22T06:39:26.581Z,17.90
2023-05-22T06:40:28.629Z,17.90
2023-05-22T06:41:32.022Z,18.00
2023-05-22T06:42:34.005Z,18.00
2023-05-22T06:43:35.850Z,18.10
2023-05-22T06:44:37.698Z,18.10
2023-05-22T06:45:39.714Z,18.20
2023-05-22T06:46:41.585Z,18.20
2023-05-22T06:47:43.417Z,18.30
2023-05-22T06:48:45.546Z,18.30
2023-05-22T06:49:47.289Z,18.30
2023-05-22T06:50:49.133Z,18.40
2023-05-22T06:51:51.085Z,18.50
2023-05-22T06:52:52.958Z,18.50
2023-05-22T06:53:54.808Z,18.60
2023-05-22T06:55:04.304Z,18.60
2023-05-22T06:56:06.491Z,18.70
2023-05-22T06:57:08.660Z,18.80
2023-05-22T06:58:10.552Z,18.80
2023-05-22T06:59:12.481Z,18.90
2023-05-22T07:00:15.704Z,19.00
2023-05-22T07:01:17.601Z,19.10
2023-05-22T07:02:19.544Z,19.10
2023-05-22T07:03:22.826Z,19.20
2023-05-22T07:04:25.079Z,19.30
2023-05-22T07:05:27.233Z,19.40
2023-05-22T07:06:29.435Z,19.40
2023-05-22T07:07:31.713Z,19.50
2023-05-22T07:08:34.147Z,19.60
2023-05-22T07:09:36.154Z,19.70
2023-05-22T07:10:38.158Z,19.80
2023-05-22T07:11:42.382Z,19.80
2023-05-22T07:12:44.242Z,19.90
2023-05-22T07:13:46.122Z,20.00
2023-05-22T07:14:47.942Z,20.10
2023-05-22T07:15:49.766Z,20.10
2023-05-22T07:16:51.686Z,20.20
2023-05-22T07:17:53.756Z,20.20
2023-05-22T07:18:55.687Z,20.30
2023-05-22T07:19:57.903Z,20.30
2023-05-22T07:20:59.881Z,20.40
2023-05-22T07:22:01.815Z,20.50
2023-05-22T07:23:03.821Z,20.60
2023-05-22T07:24:08.597Z,20.70
2023-05-22T07:25:10.648Z,20.70
2023-05-22T07:26:12.698Z,20.80
2023-05-22T07:27:14.877Z,20.90
2023-05-22T07:28:16.778Z,20.90
2023-05-22T07:29:19.033Z,21.00
2023-05-22T07:30:21.953Z,21.00
2023-05-22T07:31:23.832Z,21.10
2023-05-22T07:32:25.915Z,21.20
2023-05-22T07:33:27.874Z,21.20
2023-05-22T07:34:34.185Z,21.20
2023-05-22T07:35:36.054Z,21.30
2023-05-22T07:36:38.741Z,21.40
2023-05-22T07:37:41.330Z,21.40
2023-05-22T07:38:43.164Z,21.40
2023-05-22T07:39:46.958Z,21.40
2023-05-22T07:40:48.757Z,21.50
2023-05-22T07:41:51.115Z,21.50
2023-05-22T07:42:52.973Z,21.60
2023-05-22T07:43:54.845Z,21.60
2023-05-22T07:44:56.616Z,21.70
2023-05-22T07:45:59.039Z,21.80
2023-05-22T07:47:00.881Z,21.80
2023-05-22T07:48:04.436Z,21.90
2023-05-22T07:49:06.735Z,22.00
2023-05-22T07:50:09.294Z,22.10
2023-05-22T07:51:11.625Z,22.20
2023-05-22T07:52:13.437Z,22.30
2023-05-22T07:53:16.472Z,22.30
2023-05-22T07:54:18.710Z,22.40
2023-05-22T07:55:20.452Z,22.50
2023-05-22T07:56:22.340Z,22.50
2023-05-22T07:57:25.159Z,22.60
2023-05-22T07:58:26.993Z,22.60
2023-05-22T07:59:29.211Z,22.70
2023-05-22T08:00:31.236Z,22.70
2023-05-22T08:01:33.549Z,22.80
2023-05-22T08:02:36.541Z,22.80
2023-05-22T08:03:38.864Z,22.90
2023-05-22T08:04:41.085Z,23.00
2023-05-22T08:05:43.286Z,23.00
2023-05-22T08:06:45.279Z,23.10
2023-05-22T08:07:47.606Z,23.10
2023-05-22T08:08:53.073Z,23.10
2023-05-22T08:09:55.039Z,23.00
2023-05-22T08:11:04.235Z,23.10
2023-05-22T08:12:07.982Z,23.10
2023-05-22T08:13:10.491Z,23.10
2023-05-22T08:14:12.347Z,23.10
2023-05-22T08:15:14.380Z,23.10
2023-05-22T08:16:16.512Z,23.00
2023-05-22T08:17:18.485Z,23.10
2023-05-22T08:18:20.925Z,23.00
2023-05-22T08:19:22.972Z,23.10
2023-05-22T08:20:24.974Z,23.10
2023-05-22T08:21:26.916Z,23.10
2023-05-22T08:22:31.933Z,23.10
2023-05-22T08:23:36.363Z,23.10
2023-05-22T08:24:38.320Z,23.20
2023-05-22T08:25:40.418Z,23.10
2023-05-22T08:26:43.681Z,23.20
2023-05-22T08:27:45.555Z,23.20
2023-05-22T08:28:47.553Z,23.20
2023-05-22T08:29:49.591Z,23.30
2023-05-22T08:30:51.555Z,23.30
2023-05-22T08:31:54.148Z,23.40
2023-05-22T08:32:56.403Z,23.40
2023-05-22T08:34:02.503Z,23.40
2023-05-22T08:35:05.173Z,23.50
2023-05-22T08:36:07.321Z,23.60
2023-05-22T08:37:14.139Z,23.60
2023-05-22T08:38:17.549Z,23.60
2023-05-22T08:39:19.542Z,23.70
2023-05-22T08:40:22.589Z,23.70
2023-05-22T08:41:24.696Z,23.80
2023-05-22T08:42:26.557Z,23.80
2023-05-22T08:43:28.838Z,23.70
2023-05-22T08:44:31.306Z,23.80
2023-05-22T08:45:34.474Z,23.80
2023-05-22T08:46:38.145Z,23.70
2023-05-22T08:47:44.220Z,23.70
2023-05-22T08:48:47.354Z,23.70
2023-05-22T08:49:51.994Z,23.70
2023-05-22T08:51:00.232Z,23.60
2023-05-22T08:52:19.210Z,23.60
2023-05-22T08:53:24.014Z,23.60
2023-05-22T08:54:27.620Z,23.60
2023-05-22T08:55:30.371Z,23.60
2023-05-22T08:56:35.220Z,23.60
2023-05-22T08:57:40.033Z,23.60
2023-05-22T08:58:42.470Z,23.70
2023-05-22T08:59:45.769Z,23.80
2023-05-22T09:00:48.124Z,23.90
2023-05-22T09:01:52.373Z,23.80
2023-05-22T09:02:55.883Z,23.90
2023-05-22T09:04:03.117Z,23.80
2023-05-22T09:05:09.352Z,23.80
2023-05-22T09:06:11.279Z,23.80
2023-05-22T09:07:14.621Z,23.80
2023-05-22T09:08:21.015Z,23.70
2023-05-22T09:09:23.263Z,23.80
2023-05-22T09:10:25.299Z,23.80
2023-05-22T09:11:27.524Z,23.80
2023-05-22T09:12:29.393Z,23.80
2023-05-22T09:13:31.975Z,23.90
2023-05-22T09:14:41.268Z,23.90
2023-05-22T09:15:43.115Z,23.90
2023-05-22T09:16:46.584Z,24.10
2023-05-22T09:17:48.459Z,24.20
2023-05-22T09:18:50.712Z,24.20
2023-05-22T09:19:52.595Z,24.30
2023-05-22T09:20:57.686Z,24.40
2023-05-22T09:22:06.402Z,24.40
2023-05-22T09:23:17.637Z,24.50
2023-05-22T09:24:19.657Z,24.70
2023-05-22T09:25:22.263Z,24.90
2023-05-22T09:26:30.406Z,25.00
2023-05-22T09:27:32.445Z,25.10
2023-05-22T09:28:35.982Z,25.20
2023-05-22T09:29:59.813Z,25.30
2023-05-22T09:31:04.116Z,25.20
2023-05-22T09:32:13.864Z,25.20
2023-05-22T09:33:17.153Z,25.30
2023-05-22T09:34:19.043Z,25.40
2023-05-22T09:35:22.097Z,25.50
2023-05-22T09:36:32.381Z,25.60
2023-05-22T09:37:35.495Z,25.70
2023-05-22T09:38:37.569Z,25.90
2023-05-22T09:39:41.573Z,25.90
2023-05-22T09:40:43.656Z,26.00
2023-05-22T09:41:45.579Z,26.20
2023-05-22T09:42:47.459Z,26.30
2023-05-22T09:43:52.279Z,26.40
2023-05-22T09:44:54.005Z,26.50
2023-05-22T09:46:02.434Z,26.50
2023-05-22T09:47:06.750Z,26.50
2023-05-22T09:48:09.689Z,26.50
2023-05-22T09:49:14.991Z,26.50
2023-05-22T09:50:18.778Z,26.60
2023-05-22T09:51:26.563Z,26.70
2023-05-22T09:52:29.820Z,26.80
2023-05-22T09:53:33.179Z,26.90
2023-05-22T09:54:36.202Z,27.00
2023-05-22T09:55:39.254Z,27.00
2023-05-22T09:56:44.286Z,27.10
2023-05-22T09:57:46.637Z,27.10
2023-05-22T09:58:48.549Z,27.20
2023-05-22T09:59:57.582Z,27.20
2023-05-22T10:01:01.291Z,27.30
2023-05-22T10:02:04.407Z,27.30
2023-05-22T10:03:12.612Z,27.30
2023-05-22T10:04:18.544Z,27.20
2023-05-22T10:05:22.062Z,27.20
2023-05-22T10:06:25.392Z,27.20
2023-05-22T10:07:34.605Z,27.30
2023-05-22T10:08:43.388Z,27.40
2023-05-22T10:09:48.761Z,27.50
2023-05-22T10:10:53.196Z,27.60
2023-05-22T10:11:58.862Z,27.70
2023-05-22T10:13:03.538Z,27.80
2023-05-22T10:14:05.913Z,27.90
2023-05-22T10:15:09.322Z,27.90
2023-05-22T10:16:12.222Z,28.00
2023-05-22T10:17:16.903Z,28.00
2023-05-22T10:18:18.877Z,28.00
2023-05-22T10:19:27.074Z,28.10
2023-05-22T10:20:30.689Z,28.20
2023-05-22T10:21:34.174Z,28.30
2023-05-22T10:22:38.085Z,28.40
2023-05-22T10:23:40.660Z,28.30
2023-05-22T10:24:42.963Z,28.30
2023-05-22T10:25:46.113Z,28.20
2023-05-22T10:26:48.245Z,28.10
2023-05-22T10:27:53.615Z,28.00
2023-05-22T10:29:05.162Z,28.10
2023-05-22T10:30:07.077Z,28.10
2023-05-22T10:31:30.120Z,28.00
2023-05-22T10:33:02.800Z,28.00
2023-05-22T10:34:10.548Z,28.10
2023-05-22T10:35:37.576Z,28.20
2023-05-22T10:36:54.457Z,28.10
2023-05-22T10:38:22.961Z,28.00
2023-05-22T10:39:38.868Z,28.00
2023-05-22T10:40:42.042Z,27.90
2023-05-22T10:41:44.019Z,27.90
2023-05-22T10:42:46.125Z,27.90
2023-05-22T10:43:51.309Z,27.90
2023-05-22T10:44:53.611Z,28.00
2023-05-22T10:46:04.413Z,28.10
2023-05-22T10:47:14.454Z,28.10
2023-05-22T10:48:23.161Z,28.20
2023-05-22T10:49:26.610Z,28.30
2023-05-22T10:50:29.709Z,28.20
2023-05-22T10:51:36.204Z,28.10
2023-05-22T10:52:39.822Z,28.00
2023-05-22T10:53:45.126Z,27.90
2023-05-22T10:54:49.185Z,27.90
2023-05-22T10:55:58.518Z,28.00
2023-05-22T10:57:17.384Z,28.00
2023-05-22T10:58:27.818Z,28.00
2023-05-22T10:59:35.873Z,28.00
2023-05-22T11:00:38.191Z,28.00
2023-05-22T11:01:40.230Z,28.00
2023-05-22T11:02:45.078Z,28.00
2023-05-22T11:04:15.898Z,28.00
2023-05-22T11:05:25.482Z,28.10
2023-05-22T11:06:37.676Z,28.10
2023-05-22T11:07:42.571Z,28.10
2023-05-22T11:08:47.057Z,28.10
2023-05-22T11:09:48.978Z,28.20
2023-05-22T11:10:55.224Z,28.20
2023-05-22T11:12:18.156Z,28.30
2023-05-22T11:13:20.037Z,28.40
2023-05-22T11:14:21.972Z,28.50
2023-05-22T11:15:32.406Z,28.60
2023-05-22T11:16:34.689Z,28.70
2023-05-22T11:17:39.800Z,28.80
2023-05-22T11:18:44.140Z,28.80
2023-05-22T11:20:01.534Z,28.90
2023-05-22T11:21:04.908Z,28.90
2023-05-22T11:22:07.734Z,28.90
2023-05-22T11:23:11.285Z,28.90
2023-05-22T11:24:17.194Z,29.00
2023-05-22T11:25:20.610Z,29.00
2023-05-22T11:26:27.077Z,29.00
2023-05-22T11:27:29.979Z,29.00
2023-05-22T11:28:32.001Z,29.00
2023-05-22T11:29:34.809Z,29.10
2023-05-22T11:30:38.208Z,29.20
2023-05-22T11:31:41.384Z,29.30
2023-05-22T11:32:45.416Z,29.40
2023-05-22T11:33:48.381Z,29.50
2023-05-22T11:34:50.724Z,29.50
2023-05-22T11:35:53.824Z,29.70
2023-05-22T11:37:02.122Z,29.70
2023-05-22T11:38:07.389Z,29.80
2023-05-22T11:39:09.360Z,29.90
2023-05-22T11:40:13.644Z,29.90
2023-05-22T11:41:15.869Z,30.00
2023-05-22T11:42:19.355Z,30.10
2023-05-22T11:43:33.289Z,30.20
2023-05-22T11:44:35.109Z,30.40
2023-05-22T11:45:38.127Z,30.40
2023-05-22T11:46:40.427Z,30.50
2023-05-22T11:47:43.677Z,30.50
2023-05-22T11:48:47.315Z,30.50
2023-05-22T11:49:49.564Z,30.40
2023-05-22T11:50:51.750Z,30.30
2023-05-22T11:51:53.734Z,30.30
2023-05-22T11:52:56.410Z,30.30
2023-05-22T11:53:58.232Z,30.20
2023-05-22T11:55:00.917Z,30.20
2023-05-22T11:56:04.535Z,30.20
2023-05-22T11:57:09.658Z,30.30
2023-05-22T11:58:11.788Z,30.30
2023-05-22T11:59:13.811Z,30.30
2023-05-22T12:00:16.366Z,30.20
2023-05-22T12:01:18.553Z,30.20
2023-05-22T12:02:21.066Z,30.10
2023-05-22T12:03:25.109Z,30.10
2023-05-22T12:04:27.979Z,30.10
2023-05-22T12:05:32.518Z,30.30
2023-05-22T12:06:34.580Z,30.50
2023-05-22T12:07:36.826Z,30.50
2023-05-22T12:08:38.977Z,30.60
2023-05-22T12:09:43.759Z,30.50
2023-05-22T12:10:51.056Z,30.50
2023-05-22T12:11:55.986Z,30.70
2023-05-22T12:12:57.869Z,30.70
2023-05-22T12:14:04.473Z,30.70
2023-05-22T12:15:07.276Z,30.60
2023-05-22T12:16:21.849Z,30.60
2023-05-22T12:17:24.225Z,30.60
2023-05-22T12:18:26.933Z,30.80
2023-05-22T12:19:28.911Z,30.90
2023-05-22T12:20:31.286Z,31.00
2023-05-22T12:21:33.420Z,31.20
2023-05-22T12:22:42.190Z,31.20
2023-05-22T12:23:53.145Z,31.10
2023-05-22T12:24:55.688Z,31.10
2023-05-22T12:26:08.511Z,31.10
2023-05-22T12:27:11.358Z,31.10
2023-05-22T12:28:13.179Z,31.20
2023-05-22T12:29:15.173Z,31.10
2023-05-22T12:30:17.602Z,31.10
2023-05-22T12:31:22.882Z,31.00
2023-05-22T12:32:25.680Z,30.90
2023-05-22T12:33:29.070Z,30.80
2023-05-22T12:34:35.663Z,30.80
2023-05-22T12:35:38.800Z,30.70
2023-05-22T12:36:43.268Z,30.60
2023-05-22T12:37:49.889Z,30.50
2023-05-22T12:38:55.590Z,30.40
2023-05-22T12:40:03.375Z,30.50
2023-05-22T12:41:05.924Z,30.50
2023-05-22T12:42:08.749Z,30.50
2023-05-22T12:43:10.704Z,30.50
2023-05-22T12:44:13.027Z,30.60
2023-05-22T12:45:15.033Z,30.60
2023-05-22T12:46:17.202Z,30.80
2023-05-22T12:47:19.399Z,30.80
2023-05-22T12:48:21.227Z,30.70
2023-05-22T12:49:23.056Z,30.70
2023-05-22T12:50:25.046Z,30.80
2023-05-22T12:51:32.012Z,30.70
2023-05-22T12:52:34.837Z,30.70
2023-05-22T12:53:36.644Z,30.80
2023-05-22T12:54:38.587Z,30.80
2023-05-22T12:55:41.059Z,30.90
2023-05-22T12:56:42.912Z,31.00
2023-05-22T12:57:44.780Z,31.10
2023-05-22T12:58:46.555Z,31.20
2023-05-22T12:59:48.434Z,31.30
2023-05-22T13:00:50.395Z,31.40
2023-05-22T13:01:52.422Z,31.50
2023-05-22T13:02:54.325Z,31.60
2023-05-22T13:03:56.403Z,31.70
2023-05-22T13:04:59.132Z,31.70
2023-05-22T13:06:01.123Z,31.80
2023-05-22T13:07:03.033Z,31.90
2023-05-22T13:08:05.456Z,32.00
2023-05-22T13:09:07.309Z,32.00
2023-05-22T13:10:09.537Z,31.90
2023-05-22T13:11:12.209Z,31.90
2023-05-22T13:12:14.091Z,32.00
2023-05-22T13:13:16.093Z,31.90
2023-05-22T13:14:18.214Z,31.90
2023-05-22T13:15:20.006Z,31.90
2023-05-22T13:16:22.021Z,31.80
2023-05-22T13:17:23.970Z,31.70
2023-05-22T13:18:25.824Z,31.60
2023-05-22T13:19:28.162Z,31.40
2023-05-22T13:20:30.142Z,31.40
2023-05-22T13:21:32.072Z,31.50
2023-05-22T13:22:33.971Z,31.50
2023-05-22T13:23:36.118Z,31.60
2023-05-22T13:24:38.006Z,31.70
2023-05-22T13:25:40.171Z,31.70
2023-05-22T13:26:42.044Z,31.60
2023-05-22T13:27:43.851Z,31.60
2023-05-22T13:28:46.189Z,31.70
2023-05-22T13:29:48.140Z,31.70
2023-05-22T13:30:50.434Z,31.70
2023-05-22T13:31:53.890Z,31.70
2023-05-22T13:32:56.602Z,31.70
2023-05-22T13:33:59.534Z,31.60
2023-05-22T13:35:03.188Z,31.60
2023-05-22T13:36:05.291Z,31.60
2023-05-22T13:37:08.010Z,31.40
2023-05-22T13:38:10.041Z,31.30
2023-05-22T13:39:12.346Z,31.40
2023-05-22T13:40:16.114Z,31.30
2023-05-22T13:41:18.058Z,31.40
2023-05-22T13:42:20.358Z,31.40